createdAt,value
2018-05-14T00:18:01.397Z,65.87
2018-05-14T00:38:32.972Z,63.33
2018-05-14T00:59:03.821Z,61.01
2018-05-14T01:19:33.525Z,59.96
2018-05-14T01:40:03.892Z,59.16
2018-05-14T02:00:35.871Z,61.80
2018-05-14T02:21:06.115Z,60.68
2018-05-14T02:41:36.660Z,65.89
2018-05-14T03:02:07.527Z,66.74
2018-05-14T03:22:38.674Z,68.33
2018-05-14T03:43:09.124Z,68.92
2018-05-14T04:24:39.512Z,64.08
2018-05-14T04:45:09.753Z,56.82
2018-05-14T05:05:40.185Z,39.27
2018-05-14T05:26:11.144Z,52.04
2018-05-14T05:46:41.079Z,34.49
2018-05-14T06:07:10.731Z,33.26
2018-05-14T06:27:41.147Z,33.59
2018-05-14T06:48:10.673Z,34.26
2018-05-14T07:08:43.065Z,35.62
2018-05-14T07:29:13.924Z,42.47
2018-05-14T07:49:44.721Z,40.12
2018-05-14T08:10:15.329Z,53.86
2018-05-14T08:30:45.368Z,57.79
2018-05-14T08:51:15.691Z,60.81
2018-05-14T09:11:46.552Z,60.72
2018-05-14T09:32:16.886Z,62.74
2018-05-14T09:52:48.367Z,66.04
2018-05-14T10:13:17.825Z,64.60
2018-05-14T10:33:47.717Z,65.93
2018-05-14T10:54:18.366Z,66.76
2018-05-14T11:14:51.521Z,65.42
2018-05-14T11:35:23.459Z,68.52
2018-05-14T12:16:36.441Z,66.60
2018-05-14T12:37:06.473Z,67.52
2018-05-14T12:57:36.998Z,68.22
2018-05-14T13:18:06.547Z,67.91
2018-05-14T13:38:39.342Z,66.54
2018-05-14T13:59:09.373Z,68.67
2018-05-14T14:19:39.607Z,73.84
2018-05-14T14:40:10.463Z,75.35
2018-05-14T15:00:40.807Z,71.45
2018-05-14T15:21:11.462Z,76.07
2018-05-14T16:02:22.586Z,77.81
2018-05-14T16:22:52.627Z,79.61
2018-05-14T16:43:22.860Z,81.37
2018-05-14T17:03:55.273Z,81.68
2018-05-14T17:24:24.141Z,84.04
2018-05-14T17:44:54.608Z,83.96
2018-05-14T18:05:24.156Z,85.39
2018-05-14T18:26:05.946Z,83.51
2018-05-14T18:47:32.099Z,86.41
2018-05-14T19:49:28.866Z,87.74
2018-05-14T20:10:00.810Z,87.75
2018-05-14T20:30:30.844Z,88.10
2018-05-14T20:51:01.903Z,88.00
2018-05-14T21:11:33.071Z,88.18
2018-05-14T21:32:03.518Z,89.34
2018-05-14T21:52:33.444Z,91.41
2018-05-14T22:13:03.673Z,93.90
2018-05-14T22:33:34.122Z,96.27
2018-05-14T23:14:42.910Z,97.42
2018-05-14T23:35:13.341Z,98.88
2018-05-14T23:55:42.764Z,100.00
